sensor_id;sensor_type;location;lat;lon;timestamp;temperature;humidity
2465;DHT22;1244;54.326;10.074;2022-10-16T00:00:39;12.50;99.90
2465;DHT22;1244;54.326;10.074;2022-10-16T00:03:05;12.60;99.90
2465;DHT22;1244;54.326;10.074;2022-10-16T00:05:31;12.50;99.90
2465;DHT22;1244;54.326;10.074;2022-10-16T00:07:57;12.50;99.90
2465;DHT22;1244;54.326;10.074;2022-10-16T00:10:23;12.50;99.90
2465;DHT22;1244;54.326;10.074;2022-10-16T00:12:48;12.50;99.90
2465;DHT22;1244;54.326;10.074;2022-10-16T00:15:15;12.50;99.90
2465;DHT22;1244;54.326;10.074;2022-10-16T00:17:40;12.50;99.90
2465;DHT22;1244;54.326;10.074;2022-10-16T00:20:06;12.40;99.90
2465;DHT22;1244;54.326;10.074;2022-10-16T00:22:33;12.40;99.90
2465;DHT22;1244;54.326;10.074;2022-10-16T00:24:58;12.50;99.90
2465;DHT22;1244;54.326;10.074;2022-10-16T00:27:24;12.40;99.90
2465;DHT22;1244;54.326;10.074;2022-10-16T00:29:50;12.40;99.90
2465;DHT22;1244;54.326;10.074;2022-10-16T00:32:17;12.40;99.90
2465;DHT22;1244;54.326;10.074;2022-10-16T00:34:43;12.40;99.90
2465;DHT22;1244;54.326;10.074;2022-10-16T00:37:08;12.30;99.90
2465;DHT22;1244;54.326;10.074;2022-10-16T00:39:34;12.30;99.90
2465;DHT22;1244;54.326;10.074;2022-10-16T00:41:59;12.30;99.90
2465;DHT22;1244;54.326;10.074;2022-10-16T00:45:00;12.30;99.90
2465;DHT22;1244;54.326;10.074;2022-10-16T00:47:29;12.30;99.90
2465;DHT22;1244;54.326;10.074;2022-10-16T00:50:04;12.30;99.90
2465;DHT22;1244;54.326;10.074;2022-10-16T00:52:32;12.20;99.90
2465;DHT22;1244;54.326;10.074;2022-10-16T00:54:58;12.30;99.90
2465;DHT22;1244;54.326;10.074;2022-10-16T00:57:24;12.30;99.90
2465;DHT22;1244;54.326;10.074;2022-10-16T00:59:50;12.30;99.90
2465;DHT22;1244;54.326;10.074;2022-10-16T01:02:16;12.30;99.90
2465;DHT22;1244;54.326;10.074;2022-10-16T01:04:53;12.20;99.90
2465;DHT22;1244;54.326;10.074;2022-10-16T01:07:36;12.20;99.90
2465;DHT22;1244;54.326;10.074;2022-10-16T01:13:09;12.20;99.90
2465;DHT22;1244;54.326;10.074;2022-10-16T01:15:56;12.20;99.90
2465;DHT22;1244;54.326;10.074;2022-10-16T01:18:30;12.20;99.90
2465;DHT22;1244;54.326;10.074;2022-10-16T01:21:04;12.20;99.90
2465;DHT22;1244;54.326;10.074;2022-10-16T01:24:02;12.20;99.90
2465;DHT22;1244;54.326;10.074;2022-10-16T01:29:11;12.10;99.90
2465;DHT22;1244;54.326;10.074;2022-10-16T01:31:40;12.10;99.90
2465;DHT22;1244;54.326;10.074;2022-10-16T01:34:15;12.10;99.90
2465;DHT22;1244;54.326;10.074;2022-10-16T01:36:47;12.10;99.90
2465;DHT22;1244;54.326;10.074;2022-10-16T01:39:16;12.10;99.90
2465;DHT22;1244;54.326;10.074;2022-10-16T01:41:48;12.10;99.90
2465;DHT22;1244;54.326;10.074;2022-10-16T01:44:21;12.10;99.90
2465;DHT22;1244;54.326;10.074;2022-10-16T01:46:50;12.10;99.90
2465;DHT22;1244;54.326;10.074;2022-10-16T01:49:17;12.10;99.90
2465;DHT22;1244;54.326;10.074;2022-10-16T01:51:46;12.10;99.90
2465;DHT22;1244;54.326;10.074;2022-10-16T01:54:14;12.10;99.90
2465;DHT22;1244;54.326;10.074;2022-10-16T01:56:42;12.10;99.90
2465;DHT22;1244;54.326;10.074;2022-10-16T01:59:13;12.10;99.90
2465;DHT22;1244;54.326;10.074;2022-10-16T02:01:44;12.10;99.90
2465;DHT22;1244;54.326;10.074;2022-10-16T02:04:23;12.10;99.90
2465;DHT22;1244;54.326;10.074;2022-10-16T02:06:49;12.10;99.90
2465;DHT22;1244;54.326;10.074;2022-10-16T02:09:15;12.10;99.90
2465;DHT22;1244;54.326;10.074;2022-10-16T02:11:42;12.10;99.90
2465;DHT22;1244;54.326;10.074;2022-10-16T02:14:08;12.10;99.90
2465;DHT22;1244;54.326;10.074;2022-10-16T02:16:40;12.10;99.90
2465;DHT22;1244;54.326;10.074;2022-10-16T02:19:07;12.10;99.90
2465;DHT22;1244;54.326;10.074;2022-10-16T02:21:50;12.10;99.90
2465;DHT22;1244;54.326;10.074;2022-10-16T02:27:07;12.10;99.90
2465;DHT22;1244;54.326;10.074;2022-10-16T02:29:40;12.10;99.90
2465;DHT22;1244;54.326;10.074;2022-10-16T02:32:07;12.10;99.90
2465;DHT22;1244;54.326;10.074;2022-10-16T02:34:36;12.10;99.90
2465;DHT22;1244;54.326;10.074;2022-10-16T02:37:05;12.10;99.90
2465;DHT22;1244;54.326;10.074;2022-10-16T02:39:32;12.10;99.90
2465;DHT22;1244;54.326;10.074;2022-10-16T02:41:59;12.10;99.90
2465;DHT22;1244;54.326;10.074;2022-10-16T02:44:24;12.10;99.90
2465;DHT22;1244;54.326;10.074;2022-10-16T02:46:50;12.10;99.90
2465;DHT22;1244;54.326;10.074;2022-10-16T02:49:15;12.10;99.90
2465;DHT22;1244;54.326;10.074;2022-10-16T02:51:41;12.10;99.90
2465;DHT22;1244;54.326;10.074;2022-10-16T02:54:06;12.10;99.90
2465;DHT22;1244;54.326;10.074;2022-10-16T02:56:32;12.00;99.90
2465;DHT22;1244;54.326;10.074;2022-10-16T02:58:58;12.10;99.90
2465;DHT22;1244;54.326;10.074;2022-10-16T03:01:24;12.00;99.90
2465;DHT22;1244;54.326;10.074;2022-10-16T03:03:49;12.00;99.90
2465;DHT22;1244;54.326;10.074;2022-10-16T03:06:15;12.00;99.90
2465;DHT22;1244;54.326;10.074;2022-10-16T03:08:40;12.00;99.90
2465;DHT22;1244;54.326;10.074;2022-10-16T03:11:06;11.90;99.90
2465;DHT22;1244;54.326;10.074;2022-10-16T03:13:31;11.90;99.90
2465;DHT22;1244;54.326;10.074;2022-10-16T03:15:57;11.90;99.90
2465;DHT22;1244;54.326;10.074;2022-10-16T03:18:22;11.90;99.90
2465;DHT22;1244;54.326;10.074;2022-10-16T03:20:48;11.90;99.90
2465;DHT22;1244;54.326;10.074;2022-10-16T03:23:13;11.90;99.90
2465;DHT22;1244;54.326;10.074;2022-10-16T03:25:39;11.90;99.90
2465;DHT22;1244;54.326;10.074;2022-10-16T03:28:05;11.80;99.90
2465;DHT22;1244;54.326;10.074;2022-10-16T03:30:31;11.80;99.90
2465;DHT22;1244;54.326;10.074;2022-10-16T03:32:56;11.80;99.90
2465;DHT22;1244;54.326;10.074;2022-10-16T03:35:23;11.80;99.90
2465;DHT22;1244;54.326;10.074;2022-10-16T03:37:49;11.70;99.90
2465;DHT22;1244;54.326;10.074;2022-10-16T03:40:15;11.70;99.90
2465;DHT22;1244;54.326;10.074;2022-10-16T03:42:42;11.70;99.90
2465;DHT22;1244;54.326;10.074;2022-10-16T03:45:08;11.70;99.90
2465;DHT22;1244;54.326;10.074;2022-10-16T03:47:34;11.70;99.90
2465;DHT22;1244;54.326;10.074;2022-10-16T03:50:00;11.70;99.90
2465;DHT22;1244;54.326;10.074;2022-10-16T03:52:26;11.70;99.90
2465;DHT22;1244;54.326;10.074;2022-10-16T03:54:51;11.70;99.90
2465;DHT22;1244;54.326;10.074;2022-10-16T03:57:17;11.70;99.90
2465;DHT22;1244;54.326;10.074;2022-10-16T03:59:43;11.60;99.90
2465;DHT22;1244;54.326;10.074;2022-10-16T04:02:09;11.60;99.90
2465;DHT22;1244;54.326;10.074;2022-10-16T04:04:34;11.60;99.90
2465;DHT22;1244;54.326;10.074;2022-10-16T04:07:00;11.60;99.90
2465;DHT22;1244;54.326;10.074;2022-10-16T04:09:25;11.60;99.90
2465;DHT22;1244;54.326;10.074;2022-10-16T04:11:51;11.60;99.90
2465;DHT22;1244;54.326;10.074;2022-10-16T04:14:16;11.60;99.90
2465;DHT22;1244;54.326;10.074;2022-10-16T04:16:42;11.60;99.90
2465;DHT22;1244;54.326;10.074;2022-10-16T04:19:09;11.60;99.90
2465;DHT22;1244;54.326;10.074;2022-10-16T04:21:34;11.60;99.90
2465;DHT22;1244;54.326;10.074;2022-10-16T04:24:00;11.60;99.90
2465;DHT22;1244;54.326;10.074;2022-10-16T04:26:25;11.50;99.90
2465;DHT22;1244;54.326;10.074;2022-10-16T04:28:51;11.50;99.90
2465;DHT22;1244;54.326;10.074;2022-10-16T04:31:16;11.50;99.90
2465;DHT22;1244;54.326;10.074;2022-10-16T04:33:43;11.50;99.90
2465;DHT22;1244;54.326;10.074;2022-10-16T04:36:08;11.50;99.90
2465;DHT22;1244;54.326;10.074;2022-10-16T04:38:34;11.50;99.90
2465;DHT22;1244;54.326;10.074;2022-10-16T04:40:59;11.50;99.90
2465;DHT22;1244;54.326;10.074;2022-10-16T04:43:25;11.50;99.90
2465;DHT22;1244;54.326;10.074;2022-10-16T04:45:51;11.50;99.90
2465;DHT22;1244;54.326;10.074;2022-10-16T04:48:17;11.60;99.90
2465;DHT22;1244;54.326;10.074;2022-10-16T04:50:43;11.60;99.90
2465;DHT22;1244;54.326;10.074;2022-10-16T04:53:09;11.60;99.90
2465;DHT22;1244;54.326;10.074;2022-10-16T04:55:34;11.60;99.90
2465;DHT22;1244;54.326;10.074;2022-10-16T04:58:00;11.60;99.90
2465;DHT22;1244;54.326;10.074;2022-10-16T05:00:26;11.60;99.90
2465;DHT22;1244;54.326;10.074;2022-10-16T05:02:51;11.60;99.90
2465;DHT22;1244;54.326;10.074;2022-10-16T05:05:17;11.60;99.90
2465;DHT22;1244;54.326;10.074;2022-10-16T05:07:45;11.70;99.90
2465;DHT22;1244;54.326;10.074;2022-10-16T05:10:11;11.60;99.90
2465;DHT22;1244;54.326;10.074;2022-10-16T05:12:36;11.70;99.90
2465;DHT22;1244;54.326;10.074;2022-10-16T05:15:02;11.70;99.90
2465;DHT22;1244;54.326;10.074;2022-10-16T05:17:28;11.70;99.90
2465;DHT22;1244;54.326;10.074;2022-10-16T05:19:54;11.70;99.90
2465;DHT22;1244;54.326;10.074;2022-10-16T05:22:19;11.70;99.90
2465;DHT22;1244;54.326;10.074;2022-10-16T05:24:45;11.70;99.90
2465;DHT22;1244;54.326;10.074;2022-10-16T05:27:11;11.70;99.90
2465;DHT22;1244;54.326;10.074;2022-10-16T05:29:47;11.70;99.90
2465;DHT22;1244;54.326;10.074;2022-10-16T05:32:14;11.80;99.90
2465;DHT22;1244;54.326;10.074;2022-10-16T05:34:39;11.80;99.90
2465;DHT22;1244;54.326;10.074;2022-10-16T05:37:05;11.80;99.90
2465;DHT22;1244;54.326;10.074;2022-10-16T05:39:31;11.80;99.90
2465;DHT22;1244;54.326;10.074;2022-10-16T05:41:56;11.70;99.90
2465;DHT22;1244;54.326;10.074;2022-10-16T05:44:22;11.70;99.90
2465;DHT22;1244;54.326;10.074;2022-10-16T05:46:47;11.70;99.90
2465;DHT22;1244;54.326;10.074;2022-10-16T05:49:13;11.70;99.90
2465;DHT22;1244;54.326;10.074;2022-10-16T05:51:38;11.80;99.90
2465;DHT22;1244;54.326;10.074;2022-10-16T05:54:04;11.70;99.90
2465;DHT22;1244;54.326;10.074;2022-10-16T05:56:29;11.70;99.90
2465;DHT22;1244;54.326;10.074;2022-10-16T05:58:55;11.70;99.90
2465;DHT22;1244;54.326;10.074;2022-10-16T06:01:20;11.70;99.90
2465;DHT22;1244;54.326;10.074;2022-10-16T06:03:52;11.80;99.90
2465;DHT22;1244;54.326;10.074;2022-10-16T06:06:24;11.80;99.90
2465;DHT22;1244;54.326;10.074;2022-10-16T06:08:51;11.80;99.90
2465;DHT22;1244;54.326;10.074;2022-10-16T06:11:19;11.80;99.90
2465;DHT22;1244;54.326;10.074;2022-10-16T06:13:48;11.90;99.90
2465;DHT22;1244;54.326;10.074;2022-10-16T06:16:14;11.90;99.90
2465;DHT22;1244;54.326;10.074;2022-10-16T06:18:39;11.80;99.90
2465;DHT22;1244;54.326;10.074;2022-10-16T06:21:14;11.80;99.90
2465;DHT22;1244;54.326;10.074;2022-10-16T06:23:42;11.80;99.90
2465;DHT22;1244;54.326;10.074;2022-10-16T06:26:09;11.80;99.90
2465;DHT22;1244;54.326;10.074;2022-10-16T06:28:35;11.80;99.90
2465;DHT22;1244;54.326;10.074;2022-10-16T06:31:02;11.90;99.90
2465;DHT22;1244;54.326;10.074;2022-10-16T06:33:28;11.90;99.90
2465;DHT22;1244;54.326;10.074;2022-10-16T06:35:53;11.90;99.90
2465;DHT22;1244;54.326;10.074;2022-10-16T06:38:19;12.00;99.90
2465;DHT22;1244;54.326;10.074;2022-10-16T06:40:44;12.00;99.90
2465;DHT22;1244;54.326;10.074;2022-10-16T06:43:09;12.10;99.90
2465;DHT22;1244;54.326;10.074;2022-10-16T06:45:35;12.10;99.90
2465;DHT22;1244;54.326;10.074;2022-10-16T06:48:00;12.10;99.90
2465;DHT22;1244;54.326;10.074;2022-10-16T06:50:26;12.20;99.90
2465;DHT22;1244;54.326;10.074;2022-10-16T06:52:51;12.20;99.90
2465;DHT22;1244;54.326;10.074;2022-10-16T06:55:17;12.30;99.90
2465;DHT22;1244;54.326;10.074;2022-10-16T06:57:43;12.30;99.90
2465;DHT22;1244;54.326;10.074;2022-10-16T07:00:09;12.30;99.90
2465;DHT22;1244;54.326;10.074;2022-10-16T07:02:35;12.30;99.90
2465;DHT22;1244;54.326;10.074;2022-10-16T07:05:00;12.40;99.90
2465;DHT22;1244;54.326;10.074;2022-10-16T07:07:26;12.50;99.90
2465;DHT22;1244;54.326;10.074;2022-10-16T07:09:52;12.50;99.90
2465;DHT22;1244;54.326;10.074;2022-10-16T07:12:17;12.50;99.90
2465;DHT22;1244;54.326;10.074;2022-10-16T07:14:43;12.60;99.90
2465;DHT22;1244;54.326;10.074;2022-10-16T07:17:08;12.50;99.90
2465;DHT22;1244;54.326;10.074;2022-10-16T07:19:34;12.50;99.90
2465;DHT22;1244;54.326;10.074;2022-10-16T07:22:00;12.50;99.90
2465;DHT22;1244;54.326;10.074;2022-10-16T07:24:25;12.60;99.90
2465;DHT22;1244;54.326;10.074;2022-10-16T07:26:51;12.70;99.90
2465;DHT22;1244;54.326;10.074;2022-10-16T07:29:19;12.70;99.90
2465;DHT22;1244;54.326;10.074;2022-10-16T07:31:46;12.70;99.90
2465;DHT22;1244;54.326;10.074;2022-10-16T07:34:13;12.80;99.90
2465;DHT22;1244;54.326;10.074;2022-10-16T07:36:39;12.80;99.90
2465;DHT22;1244;54.326;10.074;2022-10-16T07:39:04;12.90;99.90
2465;DHT22;1244;54.326;10.074;2022-10-16T07:41:30;12.80;99.90
2465;DHT22;1244;54.326;10.074;2022-10-16T07:43:58;12.80;99.90
2465;DHT22;1244;54.326;10.074;2022-10-16T07:46:26;12.70;99.90
2465;DHT22;1244;54.326;10.074;2022-10-16T07:48:52;13.00;99.90
2465;DHT22;1244;54.326;10.074;2022-10-16T07:51:23;13.10;99.90
2465;DHT22;1244;54.326;10.074;2022-10-16T07:53:49;13.20;99.90
2465;DHT22;1244;54.326;10.074;2022-10-16T07:56:17;13.40;99.90
2465;DHT22;1244;54.326;10.074;2022-10-16T07:58:44;13.60;99.90
2465;DHT22;1244;54.326;10.074;2022-10-16T08:01:11;13.80;99.90
2465;DHT22;1244;54.326;10.074;2022-10-16T08:03:40;13.70;99.90
2465;DHT22;1244;54.326;10.074;2022-10-16T08:06:06;13.80;99.90
2465;DHT22;1244;54.326;10.074;2022-10-16T08:08:32;13.80;99.90
2465;DHT22;1244;54.326;10.074;2022-10-16T08:10:57;13.90;99.90
2465;DHT22;1244;54.326;10.074;2022-10-16T08:13:23;14.10;99.90
2465;DHT22;1244;54.326;10.074;2022-10-16T08:15:49;14.20;99.90
2465;DHT22;1244;54.326;10.074;2022-10-16T08:18:15;14.30;99.90
2465;DHT22;1244;54.326;10.074;2022-10-16T08:20:42;14.40;99.90
2465;DHT22;1244;54.326;10.074;2022-10-16T08:23:09;14.50;99.90
2465;DHT22;1244;54.326;10.074;2022-10-16T08:25:36;14.60;99.90
2465;DHT22;1244;54.326;10.074;2022-10-16T08:28:07;14.80;99.90
2465;DHT22;1244;54.326;10.074;2022-10-16T08:30:33;14.80;99.90
2465;DHT22;1244;54.326;10.074;2022-10-16T08:32:59;14.80;99.90
2465;DHT22;1244;54.326;10.074;2022-10-16T08:35:24;14.90;99.90
2465;DHT22;1244;54.326;10.074;2022-10-16T08:37:50;14.90;99.90
2465;DHT22;1244;54.326;10.074;2022-10-16T08:40:22;15.00;99.90
2465;DHT22;1244;54.326;10.074;2022-10-16T08:51:20;15.40;99.90
2465;DHT22;1244;54.326;10.074;2022-10-16T08:54:11;15.40;99.90
2465;DHT22;1244;54.326;10.074;2022-10-16T08:56:39;15.60;99.90
2465;DHT22;1244;54.326;10.074;2022-10-16T08:59:10;15.60;99.90
2465;DHT22;1244;54.326;10.074;2022-10-16T09:01:49;15.90;99.90
2465;DHT22;1244;54.326;10.074;2022-10-16T09:06:49;15.80;99.90
2465;DHT22;1244;54.326;10.074;2022-10-16T09:09:29;16.00;99.90
2465;DHT22;1244;54.326;10.074;2022-10-16T09:14:53;16.10;99.90
2465;DHT22;1244;54.326;10.074;2022-10-16T09:20:22;16.50;99.90
2465;DHT22;1244;54.326;10.074;2022-10-16T09:25:27;16.70;99.90
2465;DHT22;1244;54.326;10.074;2022-10-16T09:27:53;16.70;99.90
2465;DHT22;1244;54.326;10.074;2022-10-16T09:30:20;17.00;99.90
2465;DHT22;1244;54.326;10.074;2022-10-16T09:32:50;17.00;99.90
2465;DHT22;1244;54.326;10.074;2022-10-16T09:35:22;17.10;99.90
2465;DHT22;1244;54.326;10.074;2022-10-16T09:37:52;17.30;99.90
2465;DHT22;1244;54.326;10.074;2022-10-16T09:40:31;17.50;99.90
2465;DHT22;1244;54.326;10.074;2022-10-16T09:45:38;18.10;99.90
2465;DHT22;1244;54.326;10.074;2022-10-16T09:48:17;17.90;99.90
2465;DHT22;1244;54.326;10.074;2022-10-16T09:50:59;18.20;99.90
2465;DHT22;1244;54.326;10.074;2022-10-16T09:53:36;18.40;99.90
2465;DHT22;1244;54.326;10.074;2022-10-16T09:56:02;17.80;99.90
2465;DHT22;1244;54.326;10.074;2022-10-16T09:58:30;17.20;99.90
2465;DHT22;1244;54.326;10.074;2022-10-16T10:00:58;17.00;99.90
2465;DHT22;1244;54.326;10.074;2022-10-16T10:03:37;17.00;99.90
2465;DHT22;1244;54.326;10.074;2022-10-16T10:06:30;17.00;99.90
2465;DHT22;1244;54.326;10.074;2022-10-16T10:09:17;16.50;99.90
2465;DHT22;1244;54.326;10.074;2022-10-16T10:11:54;16.80;99.90
2465;DHT22;1244;54.326;10.074;2022-10-16T10:14:35;17.20;99.90
2465;DHT22;1244;54.326;10.074;2022-10-16T10:17:22;17.10;99.90
2465;DHT22;1244;54.326;10.074;2022-10-16T10:22:31;17.00;99.90
2465;DHT22;1244;54.326;10.074;2022-10-16T10:27:56;16.60;99.90
2465;DHT22;1244;54.326;10.074;2022-10-16T10:30:35;16.60;99.90
2465;DHT22;1244;54.326;10.074;2022-10-16T10:35:38;18.30;99.90
2465;DHT22;1244;54.326;10.074;2022-10-16T10:38:25;18.00;99.90
2465;DHT22;1244;54.326;10.074;2022-10-16T10:41:19;17.30;99.90
2465;DHT22;1244;54.326;10.074;2022-10-16T10:46:36;18.30;99.90
2465;DHT22;1244;54.326;10.074;2022-10-16T10:49:14;18.30;99.90
2465;DHT22;1244;54.326;10.074;2022-10-16T10:52:02;18.20;99.90
2465;DHT22;1244;54.326;10.074;2022-10-16T10:54:41;18.20;99.90
2465;DHT22;1244;54.326;10.074;2022-10-16T10:57:30;19.30;99.90
2465;DHT22;1244;54.326;10.074;2022-10-16T11:03:08;19.60;99.90
2465;DHT22;1244;54.326;10.074;2022-10-16T11:05:46;20.30;99.90
2465;DHT22;1244;54.326;10.074;2022-10-16T11:08:19;20.90;99.90
2465;DHT22;1244;54.326;10.074;2022-10-16T11:10:53;20.80;99.90
2465;DHT22;1244;54.326;10.074;2022-10-16T11:15:55;19.20;99.90
2465;DHT22;1244;54.326;10.074;2022-10-16T11:19:02;20.40;99.90
2465;DHT22;1244;54.326;10.074;2022-10-16T11:21:35;19.90;99.90
2465;DHT22;1244;54.326;10.074;2022-10-16T11:24:20;19.20;99.90
2465;DHT22;1244;54.326;10.074;2022-10-16T11:26:49;19.00;99.90
2465;DHT22;1244;54.326;10.074;2022-10-16T11:29:27;19.10;99.90
2465;DHT22;1244;54.326;10.074;2022-10-16T11:31:58;18.50;99.90
2465;DHT22;1244;54.326;10.074;2022-10-16T11:34:29;18.40;99.90
2465;DHT22;1244;54.326;10.074;2022-10-16T11:37:18;18.20;99.90
2465;DHT22;1244;54.326;10.074;2022-10-16T11:39:44;19.40;99.90
2465;DHT22;1244;54.326;10.074;2022-10-16T11:42:27;19.70;99.90
2465;DHT22;1244;54.326;10.074;2022-10-16T11:45:03;20.60;99.90
2465;DHT22;1244;54.326;10.074;2022-10-16T11:47:48;20.60;99.90
2465;DHT22;1244;54.326;10.074;2022-10-16T11:50:20;20.40;99.90
2465;DHT22;1244;54.326;10.074;2022-10-16T11:55:43;19.20;99.90
2465;DHT22;1244;54.326;10.074;2022-10-16T12:01:32;18.10;99.90
2465;DHT22;1244;54.326;10.074;2022-10-16T12:04:22;18.20;99.90
2465;DHT22;1244;54.326;10.074;2022-10-16T12:06:55;18.10;99.90
2465;DHT22;1244;54.326;10.074;2022-10-16T12:09:26;18.10;99.90
2465;DHT22;1244;54.326;10.074;2022-10-16T12:11:52;18.70;99.90
2465;DHT22;1244;54.326;10.074;2022-10-16T12:16:57;19.20;99.90
2465;DHT22;1244;54.326;10.074;2022-10-16T12:19:26;19.40;99.90
2465;DHT22;1244;54.326;10.074;2022-10-16T12:21:55;19.10;99.90
2465;DHT22;1244;54.326;10.074;2022-10-16T12:26:55;20.50;99.90
2465;DHT22;1244;54.326;10.074;2022-10-16T12:29:33;21.40;99.90
2465;DHT22;1244;54.326;10.074;2022-10-16T12:32:00;21.80;99.90
2465;DHT22;1244;54.326;10.074;2022-10-16T12:34:41;21.10;99.90
2465;DHT22;1244;54.326;10.074;2022-10-16T12:37:35;19.60;99.90
2465;DHT22;1244;54.326;10.074;2022-10-16T12:42:51;17.90;99.90
2465;DHT22;1244;54.326;10.074;2022-10-16T12:45:29;18.40;99.90
2465;DHT22;1244;54.326;10.074;2022-10-16T12:47:57;19.40;99.90
2465;DHT22;1244;54.326;10.074;2022-10-16T12:50:33;19.80;99.90
2465;DHT22;1244;54.326;10.074;2022-10-16T12:53:00;21.00;99.90
2465;DHT22;1244;54.326;10.074;2022-10-16T12:55:26;22.00;99.90
2465;DHT22;1244;54.326;10.074;2022-10-16T13:00:44;21.80;99.90
2465;DHT22;1244;54.326;10.074;2022-10-16T13:03:25;20.40;99.90
2465;DHT22;1244;54.326;10.074;2022-10-16T13:14:46;22.40;99.90
2465;DHT22;1244;54.326;10.074;2022-10-16T13:17:39;21.20;99.90
2465;DHT22;1244;54.326;10.074;2022-10-16T13:24:13;19.30;99.90
2465;DHT22;1244;54.326;10.074;2022-10-16T13:28:50;21.70;99.90
2465;DHT22;1244;54.326;10.074;2022-10-16T13:31:22;22.50;99.90
2465;DHT22;1244;54.326;10.074;2022-10-16T13:33:52;23.00;99.90
2465;DHT22;1244;54.326;10.074;2022-10-16T13:36:26;23.30;99.90
2465;DHT22;1244;54.326;10.074;2022-10-16T13:39:27;22.40;99.90
2465;DHT22;1244;54.326;10.074;2022-10-16T13:42:10;23.00;99.90
2465;DHT22;1244;54.326;10.074;2022-10-16T13:44:49;24.00;99.90
2465;DHT22;1244;54.326;10.074;2022-10-16T13:47:23;25.00;99.90
2465;DHT22;1244;54.326;10.074;2022-10-16T13:50:03;25.50;99.90
2465;DHT22;1244;54.326;10.074;2022-10-16T13:52:30;25.30;99.90
2465;DHT22;1244;54.326;10.074;2022-10-16T13:54:55;25.10;99.90
2465;DHT22;1244;54.326;10.074;2022-10-16T13:57:23;25.40;99.90
2465;DHT22;1244;54.326;10.074;2022-10-16T13:59:50;26.20;99.90
2465;DHT22;1244;54.326;10.074;2022-10-16T14:04:47;24.30;99.90
2465;DHT22;1244;54.326;10.074;2022-10-16T14:07:24;23.70;99.90
2465;DHT22;1244;54.326;10.074;2022-10-16T14:09:51;24.20;99.90
2465;DHT22;1244;54.326;10.074;2022-10-16T14:12:17;22.30;99.90
2465;DHT22;1244;54.326;10.074;2022-10-16T14:14:45;20.80;99.90
2465;DHT22;1244;54.326;10.074;2022-10-16T14:17:23;19.90;99.90
2465;DHT22;1244;54.326;10.074;2022-10-16T14:19:52;19.20;99.90
2465;DHT22;1244;54.326;10.074;2022-10-16T14:25:01;18.80;99.90
2465;DHT22;1244;54.326;10.074;2022-10-16T14:27:35;19.00;99.90
2465;DHT22;1244;54.326;10.074;2022-10-16T14:32:33;18.50;99.90
2465;DHT22;1244;54.326;10.074;2022-10-16T14:34:59;18.50;99.90
2465;DHT22;1244;54.326;10.074;2022-10-16T14:37:27;18.40;99.90
2465;DHT22;1244;54.326;10.074;2022-10-16T14:39:53;18.40;99.90
2465;DHT22;1244;54.326;10.074;2022-10-16T14:42:21;18.40;99.90
2465;DHT22;1244;54.326;10.074;2022-10-16T14:44:50;18.20;99.90
2465;DHT22;1244;54.326;10.074;2022-10-16T14:47:22;17.80;99.90
2465;DHT22;1244;54.326;10.074;2022-10-16T14:49:51;17.80;99.90
2465;DHT22;1244;54.326;10.074;2022-10-16T14:52:18;17.30;99.90
2465;DHT22;1244;54.326;10.074;2022-10-16T14:54:48;17.40;99.90
2465;DHT22;1244;54.326;10.074;2022-10-16T14:57:19;17.30;99.90
2465;DHT22;1244;54.326;10.074;2022-10-16T14:59:46;17.00;99.90
2465;DHT22;1244;54.326;10.074;2022-10-16T15:02:34;16.80;99.90
2465;DHT22;1244;54.326;10.074;2022-10-16T15:07:45;16.70;99.90
2465;DHT22;1244;54.326;10.074;2022-10-16T15:10:15;16.80;99.90
2465;DHT22;1244;54.326;10.074;2022-10-16T15:12:41;16.70;99.90
2465;DHT22;1244;54.326;10.074;2022-10-16T15:17:48;16.70;99.90
2465;DHT22;1244;54.326;10.074;2022-10-16T15:20:17;16.40;99.90
2465;DHT22;1244;54.326;10.074;2022-10-16T15:22:43;16.40;99.90
2465;DHT22;1244;54.326;10.074;2022-10-16T15:25:34;16.30;99.90
2465;DHT22;1244;54.326;10.074;2022-10-16T15:28:01;16.30;99.90
2465;DHT22;1244;54.326;10.074;2022-10-16T15:30:28;16.40;99.90
2465;DHT22;1244;54.326;10.074;2022-10-16T15:32:54;16.40;99.90
2465;DHT22;1244;54.326;10.074;2022-10-16T15:35:20;16.40;99.90
2465;DHT22;1244;54.326;10.074;2022-10-16T15:37:47;16.30;99.90
2465;DHT22;1244;54.326;10.074;2022-10-16T15:40:13;16.10;99.90
2465;DHT22;1244;54.326;10.074;2022-10-16T15:42:39;16.00;99.90
2465;DHT22;1244;54.326;10.074;2022-10-16T15:45:05;16.00;99.90
2465;DHT22;1244;54.326;10.074;2022-10-16T15:47:34;16.00;99.90
2465;DHT22;1244;54.326;10.074;2022-10-16T15:50:00;16.00;99.90
2465;DHT22;1244;54.326;10.074;2022-10-16T15:52:25;16.00;99.90
2465;DHT22;1244;54.326;10.074;2022-10-16T15:54:51;15.80;99.90
2465;DHT22;1244;54.326;10.074;2022-10-16T15:57:17;15.60;99.90
2465;DHT22;1244;54.326;10.074;2022-10-16T15:59:43;15.60;99.90
2465;DHT22;1244;54.326;10.074;2022-10-16T16:02:09;15.50;99.90
2465;DHT22;1244;54.326;10.074;2022-10-16T16:04:35;15.50;99.90
2465;DHT22;1244;54.326;10.074;2022-10-16T16:07:00;15.40;99.90
2465;DHT22;1244;54.326;10.074;2022-10-16T16:09:29;15.30;99.90
2465;DHT22;1244;54.326;10.074;2022-10-16T16:11:54;15.30;99.90
2465;DHT22;1244;54.326;10.074;2022-10-16T16:14:20;15.30;99.90
2465;DHT22;1244;54.326;10.074;2022-10-16T16:16:46;15.30;99.90
2465;DHT22;1244;54.326;10.074;2022-10-16T16:19:11;15.20;99.90
2465;DHT22;1244;54.326;10.074;2022-10-16T16:21:38;15.20;99.90
2465;DHT22;1244;54.326;10.074;2022-10-16T16:24:03;15.10;99.90
2465;DHT22;1244;54.326;10.074;2022-10-16T16:26:34;15.00;99.90
2465;DHT22;1244;54.326;10.074;2022-10-16T16:29:02;14.80;99.90
2465;DHT22;1244;54.326;10.074;2022-10-16T16:31:30;14.90;99.90
2465;DHT22;1244;54.326;10.074;2022-10-16T16:33:56;14.90;99.90
2465;DHT22;1244;54.326;10.074;2022-10-16T16:36:25;14.80;99.90
2465;DHT22;1244;54.326;10.074;2022-10-16T16:38:51;14.80;99.90
2465;DHT22;1244;54.326;10.074;2022-10-16T16:41:22;14.70;99.90
2465;DHT22;1244;54.326;10.074;2022-10-16T16:43:47;14.70;99.90
2465;DHT22;1244;54.326;10.074;2022-10-16T16:46:14;14.60;99.90
2465;DHT22;1244;54.326;10.074;2022-10-16T16:48:40;14.80;99.90
2465;DHT22;1244;54.326;10.074;2022-10-16T16:51:08;14.70;99.90
2465;DHT22;1244;54.326;10.074;2022-10-16T16:53:35;14.70;99.90
2465;DHT22;1244;54.326;10.074;2022-10-16T16:56:05;14.60;99.90
2465;DHT22;1244;54.326;10.074;2022-10-16T16:58:32;14.50;99.90
2465;DHT22;1244;54.326;10.074;2022-10-16T17:00:58;14.50;99.90
2465;DHT22;1244;54.326;10.074;2022-10-16T17:03:27;14.20;99.90
2465;DHT22;1244;54.326;10.074;2022-10-16T17:06:00;14.40;99.90
2465;DHT22;1244;54.326;10.074;2022-10-16T17:08:25;14.50;99.90
2465;DHT22;1244;54.326;10.074;2022-10-16T17:10:52;14.20;99.90
2465;DHT22;1244;54.326;10.074;2022-10-16T17:13:21;14.30;99.90
2465;DHT22;1244;54.326;10.074;2022-10-16T17:15:49;14.00;99.90
2465;DHT22;1244;54.326;10.074;2022-10-16T17:18:15;14.10;99.90
2465;DHT22;1244;54.326;10.074;2022-10-16T17:20:41;14.20;99.90
2465;DHT22;1244;54.326;10.074;2022-10-16T17:23:09;14.10;99.90
2465;DHT22;1244;54.326;10.074;2022-10-16T17:25:37;14.00;99.90
2465;DHT22;1244;54.326;10.074;2022-10-16T17:28:03;14.10;99.90
2465;DHT22;1244;54.326;10.074;2022-10-16T17:30:28;14.00;99.90